createdAt,value
2017-11-30T00:00:34.605Z,21.30
2017-11-30T00:03:03.804Z,21.13
2017-11-30T00:05:33.030Z,18.80
2017-11-30T00:08:02.240Z,19.90
2017-11-30T00:10:31.516Z,19.03
2017-11-30T00:13:00.735Z,20.97
2017-11-30T00:15:29.958Z,18.50
2017-11-30T00:17:59.171Z,18.00
2017-11-30T00:20:29.133Z,18.30
2017-11-30T00:22:58.356Z,19.83
2017-11-30T00:25:27.548Z,19.60
2017-11-30T00:27:56.798Z,18.77
2017-11-30T00:30:26.008Z,21.90
2017-11-30T00:32:55.226Z,19.33
2017-11-30T00:35:25.200Z,19.30
2017-11-30T00:37:55.189Z,19.47
2017-11-30T00:40:24.473Z,17.60
2017-11-30T00:43:11.492Z,19.60
2017-11-30T00:45:40.808Z,19.80
2017-11-30T00:48:10.144Z,21.40
2017-11-30T00:50:39.333Z,21.27
2017-11-30T00:53:08.585Z,21.20
2017-11-30T00:55:37.791Z,22.67
2017-11-30T00:58:07.026Z,24.23
2017-11-30T01:00:36.987Z,26.30
2017-11-30T01:03:06.230Z,26.60
2017-11-30T01:05:36.223Z,25.90
2017-11-30T01:08:05.453Z,28.43
2017-11-30T01:10:34.672Z,28.80
2017-11-30T01:13:03.965Z,31.33
2017-11-30T01:15:33.201Z,31.03
2017-11-30T01:18:02.408Z,29.13
2017-11-30T01:20:31.625Z,32.60
2017-11-30T01:23:01.613Z,31.67
2017-11-30T01:25:30.828Z,28.63
2017-11-30T01:28:00.064Z,28.17
2017-11-30T01:30:29.270Z,28.37
2017-11-30T01:32:58.500Z,27.90
2017-11-30T01:35:27.713Z,27.20
2017-11-30T01:37:56.917Z,24.70
2017-11-30T01:40:26.960Z,27.20
2017-11-30T01:42:56.177Z,28.50
2017-11-30T01:45:25.389Z,26.93
2017-11-30T01:47:54.630Z,24.27
2017-11-30T01:50:23.833Z,23.57
2017-11-30T01:52:53.829Z,22.80
2017-11-30T01:55:23.025Z,21.20
2017-11-30T01:57:52.225Z,22.20
2017-11-30T02:00:21.482Z,20.50
2017-11-30T02:02:50.667Z,20.20
2017-11-30T02:05:19.957Z,20.70
2017-11-30T02:07:49.170Z,20.27
2017-11-30T02:10:18.377Z,19.80
2017-11-30T02:12:47.607Z,20.73
2017-11-30T02:15:16.836Z,19.97
2017-11-30T02:17:46.790Z,21.60
2017-11-30T02:20:16.081Z,21.87
2017-11-30T02:22:45.261Z,22.13
2017-11-30T02:25:14.481Z,20.70
2017-11-30T02:27:43.663Z,22.27
2017-11-30T02:30:12.917Z,23.20
2017-11-30T02:32:42.153Z,23.37
2017-11-30T02:35:11.401Z,22.60
2017-11-30T02:37:41.034Z,22.80
2017-11-30T02:40:10.250Z,22.37
2017-11-30T02:42:39.420Z,21.80
2017-11-30T02:45:08.617Z,21.80
2017-11-30T02:47:37.831Z,22.80
2017-11-30T02:50:07.776Z,23.33
2017-11-30T02:52:36.985Z,21.10
2017-11-30T02:55:06.187Z,24.10
2017-11-30T02:57:35.413Z,23.23
2017-11-30T03:00:04.599Z,22.30
2017-11-30T03:02:33.815Z,23.43
2017-11-30T03:05:03.004Z,23.40
2017-11-30T03:07:32.214Z,24.27
2017-11-30T03:10:01.393Z,22.67
2017-11-30T03:12:30.658Z,24.13
2017-11-30T03:14:59.893Z,23.53
2017-11-30T03:17:29.088Z,21.23
2017-11-30T03:19:58.333Z,22.03
2017-11-30T03:22:27.593Z,22.67
2017-11-30T03:24:56.789Z,22.20
2017-11-30T03:27:25.990Z,22.70
2017-11-30T03:29:55.206Z,22.50
2017-11-30T03:32:25.178Z,21.93
2017-11-30T03:34:54.452Z,23.00
2017-11-30T03:37:23.633Z,24.00
2017-11-30T03:39:52.898Z,23.83
2017-11-30T03:42:22.111Z,24.80
2017-11-30T03:44:52.116Z,24.73
2017-11-30T03:47:21.297Z,24.80
2017-11-30T03:49:50.752Z,23.50
2017-11-30T03:52:19.954Z,26.10
2017-11-30T03:54:49.161Z,23.13
2017-11-30T03:57:18.396Z,22.37
2017-11-30T03:59:47.643Z,22.90
2017-11-30T04:02:16.852Z,23.10
2017-11-30T04:04:46.086Z,23.83
2017-11-30T04:07:15.293Z,26.07
2017-11-30T04:09:44.620Z,24.07
2017-11-30T04:12:13.834Z,25.60
2017-11-30T04:14:43.143Z,26.33
2017-11-30T04:17:13.127Z,26.10
2017-11-30T04:19:43.085Z,23.10
2017-11-30T04:22:12.328Z,26.40
2017-11-30T04:24:41.603Z,24.00
2017-11-30T04:27:10.824Z,24.87
2017-11-30T04:29:40.810Z,25.63
2017-11-30T04:32:10.012Z,24.90
2017-11-30T04:34:39.214Z,23.97
2017-11-30T04:37:08.538Z,26.47
2017-11-30T04:39:38.537Z,24.83
2017-11-30T04:42:07.733Z,24.17
2017-11-30T04:44:36.933Z,23.00
2017-11-30T04:47:06.116Z,23.53
2017-11-30T04:49:35.324Z,23.30
2017-11-30T04:52:04.526Z,23.27
2017-11-30T04:54:33.752Z,25.70
2017-11-30T04:57:02.953Z,25.80
2017-11-30T04:59:32.173Z,26.97
2017-11-30T05:02:01.363Z,26.13
2017-11-30T05:04:30.575Z,26.80
2017-11-30T05:06:59.792Z,26.67
2017-11-30T05:09:29.019Z,27.03
2017-11-30T05:11:58.205Z,25.83
2017-11-30T05:14:27.457Z,24.97
2017-11-30T05:16:56.660Z,27.13
2017-11-30T05:19:25.857Z,28.10
2017-11-30T05:21:55.085Z,25.70
2017-11-30T05:24:24.292Z,26.00
2017-11-30T05:26:53.525Z,27.03
2017-11-30T05:29:22.728Z,25.90
2017-11-30T05:31:51.950Z,26.13
2017-11-30T05:34:21.925Z,23.07
2017-11-30T05:36:51.962Z,25.20
2017-11-30T05:39:21.170Z,24.60
2017-11-30T05:41:50.451Z,25.87
2017-11-30T05:44:19.700Z,22.20
2017-11-30T05:46:48.945Z,23.80
2017-11-30T05:49:18.206Z,22.80
2017-11-30T05:51:47.461Z,24.03
2017-11-30T05:54:16.677Z,23.63
2017-11-30T05:56:46.745Z,24.13
2017-11-30T05:59:16.708Z,24.80
2017-11-30T06:01:45.941Z,23.53
2017-11-30T06:04:15.156Z,24.63
2017-11-30T06:06:44.401Z,23.40
2017-11-30T06:09:13.635Z,22.67
2017-11-30T06:11:43.632Z,23.87
2017-11-30T06:14:12.864Z,22.50
2017-11-30T06:16:42.826Z,24.00
2017-11-30T06:19:12.013Z,22.77
2017-11-30T06:21:41.215Z,22.17
2017-11-30T06:24:10.453Z,24.97
2017-11-30T06:26:39.659Z,24.20
2017-11-30T06:29:11.092Z,24.83
2017-11-30T06:31:40.397Z,22.67
2017-11-30T06:34:09.667Z,23.70
2017-11-30T06:36:38.836Z,22.67
2017-11-30T06:39:08.059Z,22.80
2017-11-30T06:41:37.245Z,22.87
2017-11-30T06:44:06.451Z,22.67
2017-11-30T06:46:35.645Z,22.37
2017-11-30T06:49:04.834Z,22.33
2017-11-30T06:51:34.047Z,25.27
2017-11-30T06:54:03.245Z,23.27
2017-11-30T06:56:32.442Z,26.80
2017-11-30T06:59:01.648Z,23.17
2017-11-30T07:01:30.858Z,24.40
2017-11-30T07:04:00.057Z,23.17
2017-11-30T07:06:29.553Z,24.90
2017-11-30T07:08:58.807Z,22.70
2017-11-30T07:11:28.096Z,22.37
2017-11-30T07:13:57.301Z,22.77
2017-11-30T07:16:26.624Z,27.53
2017-11-30T07:18:55.832Z,25.10
2017-11-30T07:21:25.049Z,23.67
2017-11-30T07:23:54.286Z,24.80
2017-11-30T07:26:23.510Z,24.27
2017-11-30T07:28:52.761Z,24.90
2017-11-30T07:31:21.968Z,26.37
2017-11-30T07:33:51.937Z,26.67
2017-11-30T07:36:21.141Z,26.23
2017-11-30T07:38:50.407Z,24.90
2017-11-30T07:41:19.663Z,23.97
2017-11-30T07:43:49.713Z,24.37
2017-11-30T07:46:18.926Z,22.70
2017-11-30T07:48:48.325Z,24.10
2017-11-30T07:51:18.253Z,24.90
2017-11-30T07:53:47.453Z,22.13
2017-11-30T07:56:16.673Z,23.33
2017-11-30T07:58:45.908Z,24.27
2017-11-30T08:01:15.888Z,23.40
2017-11-30T08:03:45.124Z,24.10
2017-11-30T08:06:14.349Z,23.67
2017-11-30T08:08:43.645Z,22.80
2017-11-30T08:11:13.648Z,24.13
2017-11-30T08:13:42.906Z,23.77
2017-11-30T08:16:12.886Z,24.90
2017-11-30T08:18:42.080Z,24.00
2017-11-30T08:21:11.299Z,24.93
2017-11-30T08:23:40.530Z,22.83
2017-11-30T08:26:10.557Z,24.70
2017-11-30T08:28:39.801Z,24.50
2017-11-30T08:31:08.985Z,24.67
2017-11-30T08:33:38.317Z,23.43
2017-11-30T08:36:07.518Z,23.73
2017-11-30T08:38:36.761Z,25.03
2017-11-30T08:41:06.749Z,25.77
2017-11-30T08:43:35.942Z,25.60
2017-11-30T08:46:05.905Z,24.50
2017-11-30T08:48:35.127Z,25.30
2017-11-30T08:51:04.502Z,24.27
2017-11-30T08:53:33.700Z,24.37
2017-11-30T08:56:02.881Z,24.70
2017-11-30T08:58:32.076Z,24.63
2017-11-30T09:01:01.269Z,26.60
2017-11-30T09:03:30.469Z,26.20
2017-11-30T09:05:59.700Z,27.77
2017-11-30T09:08:28.938Z,28.87
2017-11-30T09:10:58.117Z,24.27
2017-11-30T09:13:27.371Z,27.70
2017-11-30T09:15:56.554Z,26.50
2017-11-30T09:18:25.752Z,28.47
2017-11-30T09:20:54.957Z,26.70
2017-11-30T09:23:24.166Z,28.10
2017-11-30T09:25:53.398Z,27.80
2017-11-30T09:28:22.634Z,24.80
2017-11-30T09:30:52.596Z,26.27
2017-11-30T09:33:21.808Z,27.80
2017-11-30T09:35:51.017Z,28.23
2017-11-30T09:38:20.202Z,27.87
2017-11-30T09:40:50.384Z,28.50
2017-11-30T09:43:19.576Z,24.77
2017-11-30T09:45:48.980Z,27.90
2017-11-30T09:48:18.153Z,27.07
2017-11-30T09:50:48.153Z,27.17
2017-11-30T09:53:18.123Z,24.63
2017-11-30T09:55:47.364Z,24.20
2017-11-30T09:58:16.596Z,26.07
2017-11-30T10:00:45.812Z,27.13
2017-11-30T10:03:15.038Z,25.83
2017-11-30T10:05:44.298Z,25.73
2017-11-30T10:08:13.593Z,25.67
2017-11-30T10:10:43.552Z,25.43
2017-11-30T10:13:12.790Z,26.90
2017-11-30T10:15:42.756Z,24.27
2017-11-30T10:18:11.971Z,25.50
2017-11-30T10:20:41.159Z,26.50
2017-11-30T10:23:10.377Z,26.40
2017-11-30T10:25:39.584Z,26.30
2017-11-30T10:28:09.565Z,26.27
2017-11-30T10:30:38.773Z,28.93
2017-11-30T10:33:07.994Z,24.73
2017-11-30T10:35:37.155Z,28.03
2017-11-30T10:38:06.358Z,26.80
2017-11-30T10:40:35.584Z,26.70
2017-11-30T10:43:05.553Z,25.63
2017-11-30T10:45:34.785Z,24.90
2017-11-30T10:48:04.012Z,25.33
2017-11-30T10:50:33.979Z,23.07
2017-11-30T10:53:03.204Z,24.60
2017-11-30T10:55:33.189Z,24.63
2017-11-30T10:58:02.390Z,23.57
2017-11-30T11:00:31.587Z,22.90
2017-11-30T11:03:00.781Z,24.43
2017-11-30T11:05:30.002Z,23.30
2017-11-30T11:07:59.203Z,25.80
2017-11-30T11:10:29.195Z,25.93
2017-11-30T11:12:58.464Z,27.93
2017-11-30T11:15:27.656Z,24.90
2017-11-30T11:17:56.859Z,26.80
2017-11-30T11:20:26.073Z,25.20
2017-11-30T11:22:55.299Z,25.23
2017-11-30T11:25:24.504Z,24.87
2017-11-30T11:27:54.471Z,24.90
2017-11-30T11:30:23.711Z,27.33
2017-11-30T11:32:52.945Z,26.40
2017-11-30T11:35:22.996Z,24.43
2017-11-30T11:37:52.267Z,26.30
2017-11-30T11:40:22.454Z,25.80
2017-11-30T11:42:51.672Z,25.40
2017-11-30T11:45:21.630Z,24.07
2017-11-30T11:47:50.880Z,25.40
2017-11-30T11:50:20.836Z,26.60
2017-11-30T11:52:50.042Z,26.00
2017-11-30T11:55:19.236Z,26.10
2017-11-30T11:57:48.524Z,27.83
2017-11-30T12:00:17.692Z,25.90
2017-11-30T12:02:47.692Z,25.60
2017-11-30T12:05:17.674Z,23.93
2017-11-30T12:07:46.902Z,23.60
2017-11-30T12:10:17.000Z,22.13
2017-11-30T12:12:46.188Z,21.83
2017-11-30T12:15:15.417Z,20.20
2017-11-30T12:17:45.360Z,19.80
2017-11-30T12:20:14.581Z,20.07
2017-11-30T12:22:43.781Z,18.73
2017-11-30T12:25:12.993Z,20.83
2017-11-30T12:27:42.321Z,19.93
2017-11-30T12:30:11.427Z,19.83
2017-11-30T12:32:41.432Z,18.90
2017-11-30T12:35:11.482Z,20.37
2017-11-30T12:37:40.687Z,20.83
2017-11-30T12:40:09.888Z,21.13
2017-11-30T12:42:39.109Z,21.00
2017-11-30T12:45:08.319Z,20.83
2017-11-30T12:47:37.524Z,22.80
2017-11-30T12:50:06.721Z,22.10
2017-11-30T12:52:35.921Z,21.67
2017-11-30T12:55:05.130Z,25.10
2017-11-30T12:57:35.124Z,23.70
2017-11-30T13:00:04.302Z,23.93
2017-11-30T13:02:33.578Z,24.93
2017-11-30T13:05:03.619Z,21.77
2017-11-30T13:07:32.959Z,26.37
2017-11-30T13:10:02.951Z,21.60
2017-11-30T13:12:32.333Z,25.17
2017-11-30T13:15:01.547Z,24.87
2017-11-30T13:17:30.767Z,25.10
2017-11-30T13:20:00.762Z,24.90
2017-11-30T13:22:29.963Z,27.50
2017-11-30T13:24:59.174Z,26.40
2017-11-30T13:27:28.564Z,26.10
2017-11-30T13:29:57.777Z,26.67
2017-11-30T13:32:26.986Z,26.50
2017-11-30T13:34:56.181Z,26.80
2017-11-30T13:37:26.108Z,27.00
2017-11-30T13:39:55.319Z,23.67
2017-11-30T13:42:24.516Z,23.67
2017-11-30T13:44:53.773Z,23.67
2017-11-30T13:47:22.971Z,23.93
2017-11-30T13:49:52.969Z,20.10
2017-11-30T13:52:22.156Z,18.57
2017-11-30T13:54:51.339Z,18.17
2017-11-30T13:57:20.552Z,18.70
2017-11-30T13:59:49.765Z,16.50
2017-11-30T14:02:18.999Z,16.40
2017-11-30T14:04:48.202Z,16.97
2017-11-30T14:07:17.427Z,18.17
2017-11-30T14:09:46.638Z,18.20
2017-11-30T14:12:15.847Z,19.17
2017-11-30T14:14:46.538Z,20.30
2017-11-30T14:17:16.067Z,19.47
2017-11-30T14:19:45.650Z,18.97
2017-11-30T14:22:14.873Z,19.97
2017-11-30T14:24:44.863Z,21.30
2017-11-30T14:27:14.076Z,19.73
2017-11-30T14:29:43.298Z,19.20
2017-11-30T14:32:12.747Z,20.50
2017-11-30T14:34:42.751Z,20.47
2017-11-30T14:37:11.950Z,20.33
2017-11-30T14:39:41.924Z,19.37
2017-11-30T14:42:11.114Z,21.80
2017-11-30T14:44:40.334Z,20.10
2017-11-30T14:47:09.539Z,22.30
2017-11-30T14:49:39.540Z,23.00
2017-11-30T14:52:08.761Z,23.57
2017-11-30T14:54:38.752Z,21.40
2017-11-30T14:57:08.019Z,21.20
2017-11-30T14:59:37.291Z,19.23
2017-11-30T15:02:06.656Z,18.00
2017-11-30T15:04:35.870Z,17.57
2017-11-30T15:07:05.883Z,17.73
2017-11-30T15:09:35.091Z,16.53
2017-11-30T15:12:05.087Z,16.23
2017-11-30T15:14:34.390Z,17.83
2017-11-30T15:17:03.607Z,14.40
2017-11-30T15:19:33.619Z,15.03
2017-11-30T15:22:03.678Z,15.10
2017-11-30T15:24:32.873Z,15.00
2017-11-30T15:27:02.100Z,13.27
2017-11-30T15:29:31.295Z,13.23
2017-11-30T15:32:00.516Z,13.70
2017-11-30T15:34:30.495Z,14.23
2017-11-30T15:36:59.712Z,12.87
2017-11-30T15:39:28.974Z,12.63
2017-11-30T15:41:58.179Z,13.40
2017-11-30T15:44:27.395Z,14.70
2017-11-30T15:46:57.388Z,13.40
2017-11-30T15:49:26.579Z,13.20
2017-11-30T15:51:55.796Z,12.93
2017-11-30T15:54:25.123Z,14.13
2017-11-30T15:56:54.430Z,14.10
2017-11-30T15:59:23.645Z,12.93
2017-11-30T16:01:53.690Z,13.90
2017-11-30T16:04:22.972Z,15.07
2017-11-30T16:06:52.346Z,15.53
2017-11-30T16:09:21.587Z,14.40
2017-11-30T16:11:50.779Z,14.37
2017-11-30T16:14:19.994Z,15.77
2017-11-30T16:16:49.276Z,16.87
2017-11-30T16:19:18.581Z,16.77
2017-11-30T16:21:48.624Z,18.57
2017-11-30T16:24:17.898Z,17.87
2017-11-30T16:26:47.903Z,17.70
2017-11-30T16:29:17.126Z,17.60
2017-11-30T16:31:46.555Z,18.93
2017-11-30T16:34:15.835Z,18.87
2017-11-30T16:36:45.612Z,20.30
2017-11-30T16:39:14.807Z,19.13
2017-11-30T16:41:44.075Z,17.70
2017-11-30T16:44:14.926Z,18.17
2017-11-30T16:46:44.892Z,18.07
2017-11-30T16:49:14.185Z,19.30
2017-11-30T16:51:43.411Z,19.53
2017-11-30T16:54:12.631Z,19.80
2017-11-30T16:56:41.835Z,19.97
2017-11-30T16:59:11.843Z,22.13
2017-11-30T17:01:41.888Z,23.87
2017-11-30T17:04:11.075Z,24.73
2017-11-30T17:06:40.299Z,25.27
2017-11-30T17:09:09.533Z,26.47
2017-11-30T17:11:38.760Z,28.77
2017-11-30T17:14:08.796Z,25.63
2017-11-30T17:16:37.996Z,25.03
2017-11-30T17:19:07.247Z,25.37
2017-11-30T17:21:36.501Z,25.10
2017-11-30T17:24:05.702Z,25.80
2017-11-30T17:26:34.963Z,24.30
2017-11-30T17:29:04.937Z,25.70
2017-11-30T17:31:36.351Z,24.07
2017-11-30T17:34:05.569Z,24.53
2017-11-30T17:36:34.886Z,23.97
2017-11-30T17:39:04.075Z,22.30
2017-11-30T17:41:33.318Z,20.43
2017-11-30T17:44:02.554Z,25.87
2017-11-30T17:46:31.763Z,25.73
2017-11-30T17:49:00.981Z,21.50
2017-11-30T17:51:30.462Z,20.23
2017-11-30T17:53:59.694Z,21.77
2017-11-30T17:56:29.651Z,21.43
2017-11-30T17:58:58.850Z,19.67
2017-11-30T18:01:29.689Z,19.70
2017-11-30T18:03:58.972Z,20.70
2017-11-30T18:06:28.957Z,19.90
2017-11-30T18:08:58.235Z,20.70
2017-11-30T18:11:27.451Z,17.07
2017-11-30T18:13:56.687Z,18.77
2017-11-30T18:16:25.878Z,18.90
2017-11-30T18:18:55.120Z,18.03
2017-11-30T18:21:24.572Z,18.23
2017-11-30T18:23:54.464Z,18.30
2017-11-30T18:26:23.695Z,19.70
2017-11-30T18:28:52.941Z,20.27
2017-11-30T18:31:22.146Z,21.90
2017-11-30T18:33:51.372Z,19.37
2017-11-30T18:36:21.333Z,21.07
2017-11-30T18:38:50.557Z,21.00
2017-11-30T18:41:19.849Z,19.87
2017-11-30T18:43:49.060Z,21.30
2017-11-30T18:46:18.317Z,20.13
2017-11-30T18:48:47.539Z,19.53
2017-11-30T18:51:16.820Z,20.83
2017-11-30T18:53:46.041Z,20.13
2017-11-30T18:56:15.269Z,19.20
2017-11-30T18:58:44.507Z,20.30
2017-11-30T19:01:13.731Z,19.30
2017-11-30T19:03:42.989Z,20.07
2017-11-30T19:06:12.195Z,19.07
2017-11-30T19:08:41.487Z,19.67
2017-11-30T19:11:11.440Z,20.13
2017-11-30T19:13:40.697Z,21.17
2017-11-30T19:16:09.949Z,20.77
2017-11-30T19:18:39.202Z,18.80
2017-11-30T19:21:08.364Z,19.73
2017-11-30T19:23:38.387Z,18.63
2017-11-30T19:26:08.452Z,18.50
2017-11-30T19:28:37.660Z,19.40
2017-11-30T19:31:06.904Z,19.77
2017-11-30T19:33:37.055Z,18.70
2017-11-30T19:36:06.368Z,18.20
2017-11-30T19:38:35.558Z,20.23
2017-11-30T19:41:06.646Z,17.80
2017-11-30T19:43:36.671Z,20.07
2017-11-30T19:46:06.642Z,19.13
2017-11-30T19:48:36.679Z,17.93
2017-11-30T19:51:05.935Z,18.77
2017-11-30T19:53:35.237Z,19.10
2017-11-30T19:56:04.543Z,18.10
2017-11-30T19:58:33.803Z,17.40
2017-11-30T20:01:03.797Z,15.50
2017-11-30T20:03:33.003Z,16.90
2017-11-30T20:06:03.085Z,16.87
2017-11-30T20:08:32.284Z,17.80
2017-11-30T20:11:01.455Z,17.83
2017-11-30T20:13:30.815Z,17.17
2017-11-30T20:16:00.769Z,17.63
2017-11-30T20:18:30.000Z,18.90
2017-11-30T20:20:59.204Z,18.87
2017-11-30T20:23:28.439Z,19.67
2017-11-30T20:25:58.501Z,20.43
2017-11-30T20:28:27.749Z,17.23
2017-11-30T20:30:57.730Z,19.97
2017-11-30T20:33:27.056Z,20.87
2017-11-30T20:35:57.630Z,20.00
2017-11-30T20:38:26.860Z,18.00
2017-11-30T20:40:56.144Z,21.47
2017-11-30T20:43:25.369Z,19.27
2017-11-30T20:45:55.384Z,20.73
2017-11-30T20:48:24.601Z,20.60
2017-11-30T20:50:53.873Z,19.97
2017-11-30T20:53:23.082Z,20.80
2017-11-30T20:55:53.099Z,19.40
2017-11-30T20:58:23.158Z,19.57
2017-11-30T21:00:52.383Z,20.27
2017-11-30T21:03:21.618Z,22.67
2017-11-30T21:05:51.561Z,21.30
2017-11-30T21:08:20.931Z,22.17
2017-11-30T21:10:50.142Z,21.17
2017-11-30T21:13:19.415Z,21.20
2017-11-30T21:15:48.665Z,21.63
2017-11-30T21:18:17.945Z,20.07
2017-11-30T21:20:47.919Z,21.33
2017-11-30T21:23:17.147Z,20.77
2017-11-30T21:25:47.159Z,19.30
2017-11-30T21:28:17.256Z,21.13
2017-11-30T21:30:46.495Z,21.60
2017-11-30T21:33:15.758Z,21.47
2017-11-30T21:35:45.743Z,20.33
2017-11-30T21:38:15.087Z,21.50
2017-11-30T21:40:44.308Z,21.60
2017-11-30T21:43:13.613Z,21.13
2017-11-30T21:45:43.595Z,19.37
2017-11-30T21:48:13.637Z,21.60
2017-11-30T21:50:43.639Z,18.90
2017-11-30T21:53:13.709Z,21.17
2017-11-30T21:55:43.008Z,20.50
2017-11-30T21:58:12.195Z,22.53
2017-11-30T22:00:41.430Z,22.67
2017-11-30T22:03:11.664Z,22.10
2017-11-30T22:05:41.635Z,21.10
2017-11-30T22:08:11.640Z,20.50
2017-11-30T22:10:40.863Z,21.13
2017-11-30T22:13:10.046Z,21.17
2017-11-30T22:15:39.355Z,21.10
2017-11-30T22:18:08.568Z,21.70
2017-11-30T22:20:37.799Z,22.20
2017-11-30T22:23:07.776Z,21.30
2017-11-30T22:25:37.013Z,20.43
2017-11-30T22:28:07.024Z,21.37
2017-11-30T22:30:36.980Z,19.97
2017-11-30T22:33:06.203Z,22.30
2017-11-30T22:35:35.392Z,20.23
2017-11-30T22:38:06.130Z,19.57
2017-11-30T22:40:35.403Z,20.70
2017-11-30T22:43:04.637Z,20.50
2017-11-30T22:45:33.824Z,22.30
2017-11-30T22:48:03.402Z,18.77
2017-11-30T22:50:32.650Z,21.23
2017-11-30T22:53:02.613Z,23.10
2017-11-30T22:55:32.013Z,21.40
2017-11-30T22:58:01.219Z,22.90
2017-11-30T23:00:43.185Z,19.27
2017-11-30T23:03:13.140Z,20.80
2017-11-30T23:05:42.614Z,20.13
2017-11-30T23:08:11.845Z,20.37
2017-11-30T23:10:41.129Z,22.00
2017-11-30T23:13:10.351Z,20.27
2017-11-30T23:15:39.558Z,21.43
2017-11-30T23:18:08.833Z,20.23
2017-11-30T23:20:38.040Z,21.23
2017-11-30T23:23:07.241Z,22.83
2017-11-30T23:25:36.444Z,22.00
2017-11-30T23:28:05.709Z,20.47
2017-11-30T23:30:34.892Z,20.17
2017-11-30T23:33:04.103Z,21.73
2017-11-30T23:35:33.296Z,20.80
2017-11-30T23:38:02.592Z,21.73
2017-11-30T23:40:31.796Z,19.17
2017-11-30T23:43:01.009Z,21.30
2017-11-30T23:45:30.203Z,19.77
2017-11-30T23:47:59.422Z,20.83
2017-11-30T23:50:28.745Z,22.80
2017-11-30T23:52:57.963Z,20.90
2017-11-30T23:55:27.950Z,21.33
2017-11-30T23:57:57.929Z,21.87
